Terminal Aerodrome Forecast
Issued by NWS

Home | Current Version | Previous Version | Text Only | Print | Product List | Glossary On
Versions: 1 2 3 4 5 6 7 8 9 10 11 12 13 14 15 16
000
FTUS43 KOAX 252321
TAFSNY
TAF
KSNY 252321Z 2600/2624 15015G25KT P6SM SKC
     FM260300 26012KT P6SM SKC
     FM260900 18010KT P6SM SCT250
     FM262000 18012G20KT P6SM VCTS BKN150CB=

USA.gov is the U.S. government's official web portal to all federal, state and local government web resources and services.